Time;durP1;ratioP1;P1;durP2;ratioP2;P2;SDS_P1;SDS_P2;PMS_P1;PMS_P2;Temp;Humidity;BMP_temperature;BMP_pressure;BME280_temperature;BME280_humidity;BME280_pressure;Samples;Min_cycle;Max_cycle;Signal;HPM_P1;HPM_P2
2022/02/25 00:00:47;;;;;;;0.90;0.40;;;2.80;86.30;;;;;;5114953;28;20036;-72
2022/02/25 00:03:14;;;;;;;0.82;0.30;;;2.80;86.40;;;;;;5097011;28;20058;-72
2022/02/25 00:05:41;;;;;;;0.70;0.30;;;2.70;86.30;;;;;;5114849;28;20484;-72
2022/02/25 00:08:07;;;;;;;2.20;0.38;;;2.60;86.40;;;;;;5114799;28;20050;-73
2022/02/25 00:10:33;;;;;;;0.38;0.20;;;2.70;86.50;;;;;;5114313;28;20122;-72
2022/02/25 00:12:59;;;;;;;0.55;0.40;;;2.60;87.20;;;;;;5094178;28;20071;-73
2022/02/25 00:15:25;;;;;;;0.30;0.30;;;2.60;86.60;;;;;;5114441;28;20511;-72
2022/02/25 00:17:50;;;;;;;0.25;0.20;;;2.60;86.60;;;;;;5114417;28;20061;-73
2022/02/25 00:20:16;;;;;;;0.55;0.22;;;2.60;86.70;;;;;;5114356;28;20032;-72
2022/02/25 00:22:42;;;;;;;0.40;0.40;;;2.50;86.70;;;;;;5079609;28;20504;-73
2022/02/25 00:25:09;;;;;;;1.90;0.40;;;2.60;86.70;;;;;;5095884;28;20493;-73
2022/02/25 00:27:38;;;;;;;0.55;0.40;;;2.60;86.80;;;;;;5114492;28;20489;-72
2022/02/25 00:30:05;;;;;;;2.30;0.60;;;2.50;86.70;;;;;;5112948;28;20119;-73
2022/02/25 00:32:30;;;;;;;0.20;0.20;;;2.50;86.70;;;;;;5114519;28;20081;-72
2022/02/25 00:34:56;;;;;;;0.88;0.30;;;2.50;86.80;;;;;;5114419;28;20405;-73
2022/02/25 00:37:22;;;;;;;0.82;0.45;;;2.50;86.80;;;;;;5113893;28;20043;-72
2022/02/25 00:39:48;;;;;;;1.45;0.40;;;2.60;86.80;;;;;;5114393;28;20439;-73
2022/02/25 00:42:13;;;;;;;1.75;0.50;;;2.60;86.80;;;;;;5113979;28;20047;-72
2022/02/25 00:44:40;;;;;;;0.35;0.32;;;2.60;86.70;;;;;;5113781;28;20393;-72
2022/02/25 00:47:06;;;;;;;2.45;0.60;;;2.60;86.70;;;;;;5113960;28;20043;-72
2022/02/25 00:49:32;;;;;;;3.42;0.60;;;2.70;86.60;;;;;;5113794;28;20036;-72
2022/02/25 00:51:57;;;;;;;1.27;0.30;;;2.70;86.50;;;;;;5095475;28;20050;-72
2022/02/25 00:54:23;;;;;;;1.02;0.45;;;2.80;86.40;;;;;;5113625;28;20047;-72
2022/02/25 00:56:49;;;;;;;1.80;0.30;;;2.80;86.30;;;;;;5113688;28;20082;-73
2022/02/25 00:59:15;;;;;;;0.82;0.45;;;2.80;86.20;;;;;;5078432;28;20446;-73
2022/02/25 01:01:41;;;;;;;0.85;0.35;;;2.80;86.10;;;;;;5095828;28;20044;-72
2022/02/25 01:04:07;;;;;;;2.08;0.57;;;2.80;86.00;;;;;;5113459;28;20031;-72
2022/02/25 01:06:33;;;;;;;0.30;0.30;;;2.80;86.00;;;;;;5095322;28;20062;-73
2022/02/25 01:08:59;;;;;;;2.65;0.63;;;2.80;86.10;;;;;;5113366;28;20031;-73
2022/02/25 01:11:24;;;;;;;2.00;0.40;;;2.80;86.10;;;;;;5113580;28;20067;-72
2022/02/25 01:13:50;;;;;;;0.65;0.35;;;2.80;86.10;;;;;;5095154;28;20031;-72
2022/02/25 01:16:16;;;;;;;0.80;0.40;;;2.70;86.10;;;;;;5113791;28;20043;-72
2022/02/25 01:18:42;;;;;;;1.10;0.40;;;2.70;86.30;;;;;;5113838;28;20036;-72
2022/02/25 01:21:07;;;;;;;1.42;0.50;;;2.70;86.40;;;;;;5113894;28;20074;-72
2022/02/25 01:23:34;;;;;;;0.88;0.38;;;2.60;86.40;;;;;;5113352;28;20101;-72
2022/02/25 01:26:00;;;;;;;1.98;0.57;;;2.60;86.50;;;;;;5113287;28;20090;-72
2022/02/25 01:28:27;;;;;;;1.65;0.60;;;2.50;86.50;;;;;;5113123;28;20032;-73
2022/02/25 01:30:53;;;;;;;1.83;0.60;;;2.50;86.60;;;;;;5113315;28;20131;-72
2022/02/25 01:33:19;;;;;;;1.10;0.60;;;2.50;86.60;;;;;;5112926;28;20509;-72
2022/02/25 01:35:45;;;;;;;1.63;0.80;;;2.50;86.70;;;;;;5113470;28;20070;-72
2022/02/25 01:38:11;;;;;;;1.38;0.65;;;2.40;86.70;;;;;;5095082;28;20051;-72
2022/02/25 01:40:37;;;;;;;1.90;0.90;;;2.40;86.70;;;;;;5112907;28;20063;-72
2022/02/25 01:43:03;;;;;;;2.38;0.80;;;2.40;86.80;;;;;;5094697;28;20401;-72
2022/02/25 01:45:32;;;;;;;1.95;1.08;;;2.40;86.80;;;;;;5112916;28;20031;-72
2022/02/25 01:47:57;;;;;;;1.25;0.70;;;2.40;86.80;;;;;;5112691;28;20099;-72
2022/02/25 01:50:23;;;;;;;2.00;0.82;;;2.40;86.80;;;;;;5112066;28;20471;-72
2022/02/25 01:53:09;;;;;;;0.65;0.60;;;2.50;86.80;;;;;;5095191;28;20031;-72
2022/02/25 01:55:37;;;;;;;1.83;0.90;;;2.40;86.70;;;;;;5093786;28;20054;-72
2022/02/25 01:58:03;;;;;;;1.08;0.88;;;2.40;86.70;;;;;;5112772;28;20040;-72
2022/02/25 02:00:29;;;;;;;3.80;1.10;;;2.40;86.70;;;;;;5112753;28;20126;-72
2022/02/25 02:02:55;;;;;;;3.05;1.10;;;2.40;86.80;;;;;;5112841;28;20112;-72
2022/02/25 02:05:21;;;;;;;4.00;1.40;;;2.40;86.80;;;;;;5113120;28;20954;-73
2022/02/25 02:07:47;;;;;;;2.92;1.23;;;2.50;86.70;;;;;;5113145;28;20031;-73
2022/02/25 02:10:14;;;;;;;4.70;1.30;;;2.40;86.70;;;;;;5112636;28;20042;-73
2022/02/25 02:12:40;;;;;;;4.65;1.30;;;2.40;86.70;;;;;;5094895;28;20036;-73
2022/02/25 02:15:06;;;;;;;1.83;1.20;;;2.40;86.70;;;;;;5112714;28;20401;-73
2022/02/25 02:17:33;;;;;;;3.80;1.45;;;2.40;86.70;;;;;;5094927;28;20039;-73
2022/02/25 02:20:01;;;;;;;5.88;1.30;;;2.40;86.70;;;;;;5112904;28;20100;-73
2022/02/25 02:22:27;;;;;;;4.93;1.52;;;2.40;86.70;;;;;;5112941;28;20044;-73
2022/02/25 02:24:54;;;;;;;2.60;1.08;;;2.40;86.70;;;;;;5112642;28;20147;-74
2022/02/25 02:27:20;;;;;;;1.90;0.93;;;2.40;86.70;;;;;;5112250;28;20481;-73
2022/02/25 02:29:46;;;;;;;3.20;1.10;;;2.40;86.70;;;;;;5094266;28;20050;-73
2022/02/25 02:32:12;;;;;;;2.92;0.90;;;2.40;86.70;;;;;;5094192;28;20382;-74
2022/02/25 02:34:38;;;;;;;1.70;1.10;;;2.40;86.80;;;;;;5112220;28;20457;-73
2022/02/25 02:37:10;;;;;;;2.83;1.52;;;2.40;86.80;;;;;;5112770;28;20036;-73
2022/02/25 02:39:36;;;;;;;1.42;1.10;;;2.40;86.90;;;;;;5094775;28;20080;-73
2022/02/25 02:42:04;;;;;;;3.03;1.52;;;2.50;86.80;;;;;;5112290;28;20043;-73
2022/02/25 02:44:29;;;;;;;2.95;1.15;;;2.40;86.70;;;;;;5110637;28;20121;-73
2022/02/25 02:46:55;;;;;;;3.38;1.30;;;2.50;86.80;;;;;;5112620;28;20094;-71
2022/02/25 02:49:21;;;;;;;3.10;1.55;;;2.50;86.80;;;;;;5076936;28;20043;-74
2022/02/25 02:51:47;;;;;;;3.20;1.50;;;2.50;86.70;;;;;;5112616;28;20381;-73
2022/02/25 02:54:13;;;;;;;2.75;1.40;;;2.50;86.70;;;;;;5112119;28;20170;-73
2022/02/25 02:56:39;;;;;;;1.73;1.20;;;2.50;86.70;;;;;;5094394;28;20063;-73
2022/02/25 02:59:04;;;;;;;1.90;1.02;;;2.50;86.70;;;;;;5112524;28;20549;-74
2022/02/25 03:01:32;;;;;;;4.60;1.40;;;2.50;86.70;;;;;;5115130;28;20043;-73
2022/02/25 03:03:58;;;;;;;3.78;1.40;;;2.50;86.80;;;;;;5080404;28;20488;-73
2022/02/25 03:06:26;;;;;;;2.67;1.30;;;2.50;86.80;;;;;;5115977;28;20050;-73
2022/02/25 03:08:53;;;;;;;3.95;1.30;;;2.60;86.80;;;;;;5097373;28;20032;-73
2022/02/25 03:11:19;;;;;;;2.47;1.05;;;2.50;86.70;;;;;;5097556;28;20066;-74
2022/02/25 03:13:46;;;;;;;2.22;1.20;;;2.50;86.80;;;;;;5115694;28;20044;-73
2022/02/25 03:16:12;;;;;;;2.30;1.00;;;2.50;86.90;;;;;;5096871;28;20511;-73
2022/02/25 03:18:38;;;;;;;3.10;1.17;;;2.50;86.90;;;;;;5080478;28;20044;-73
2022/02/25 03:21:05;;;;;;;1.00;0.77;;;2.40;86.80;;;;;;5115527;28;20054;-73
2022/02/25 03:23:30;;;;;;;1.13;0.90;;;2.50;87.00;;;;;;5115171;28;20047;-74
2022/02/25 03:25:56;;;;;;;1.10;0.80;;;2.50;87.00;;;;;;5097017;28;20062;-73
2022/02/25 03:28:22;;;;;;;4.15;1.23;;;2.40;86.90;;;;;;5096806;28;20067;-73
2022/02/25 03:30:48;;;;;;;2.50;1.10;;;2.50;87.00;;;;;;5115428;28;20031;-73
2022/02/25 03:33:13;;;;;;;2.80;0.88;;;2.40;87.00;;;;;;5115059;28;20084;-73
2022/02/25 03:35:39;;;;;;;3.60;1.10;;;2.30;86.90;;;;;;5115117;28;20112;-73
2022/02/25 03:38:05;;;;;;;1.75;1.05;;;2.40;87.00;;;;;;5115024;28;20123;-73
2022/02/25 03:40:32;;;;;;;2.83;1.08;;;2.40;87.00;;;;;;5115158;28;20041;-73
2022/02/25 03:42:58;;;;;;;2.50;1.10;;;2.40;87.00;;;;;;5115386;28;20161;-73
2022/02/25 03:45:24;;;;;;;2.15;1.05;;;2.40;87.00;;;;;;5114755;28;20131;-73
2022/02/25 03:47:49;;;;;;;2.92;1.10;;;2.50;87.00;;;;;;5115018;28;20416;-73
2022/02/25 03:50:15;;;;;;;2.22;0.98;;;2.50;87.00;;;;;;5115251;28;20031;-73
2022/02/25 03:52:41;;;;;;;3.75;1.00;;;2.50;87.00;;;;;;5114791;28;20040;-73
2022/02/25 03:55:08;;;;;;;1.65;0.90;;;2.40;87.00;;;;;;5115223;28;20040;-73
2022/02/25 03:57:34;;;;;;;3.20;1.25;;;2.40;87.00;;;;;;5096851;28;20047;-73
2022/02/25 04:00:01;;;;;;;1.80;1.20;;;2.40;87.00;;;;;;5114525;28;20183;-73
2022/02/25 04:02:27;;;;;;;2.58;0.98;;;2.50;87.00;;;;;;5114904;28;20043;-73
2022/02/25 04:04:53;;;;;;;3.00;0.80;;;2.40;87.00;;;;;;5114637;28;20378;-73
2022/02/25 04:07:20;;;;;;;1.88;1.00;;;2.50;87.00;;;;;;5115146;28;20416;-73
2022/02/25 04:09:46;;;;;;;2.10;1.10;;;2.40;87.00;;;;;;5114493;28;20058;-73
2022/02/25 04:12:12;;;;;;;3.25;0.98;;;2.40;86.90;;;;;;5113982;28;20552;-73
2022/02/25 04:14:38;;;;;;;2.00;0.70;;;2.40;86.90;;;;;;5114574;28;20039;-73
2022/02/25 04:17:04;;;;;;;2.03;1.00;;;2.40;86.90;;;;;;5114958;28;20036;-73
2022/02/25 04:19:30;;;;;;;2.00;1.00;;;2.40;87.00;;;;;;5096243;28;20036;-73
2022/02/25 04:21:56;;;;;;;2.60;1.10;;;2.40;87.00;;;;;;5094208;28;20181;-73
2022/02/25 04:24:21;;;;;;;4.53;1.05;;;2.40;87.00;;;;;;5096191;28;20085;-73
2022/02/25 04:26:48;;;;;;;2.50;1.02;;;2.40;87.00;;;;;;5096089;28;20047;-73
2022/02/25 04:29:14;;;;;;;4.05;1.05;;;2.40;87.00;;;;;;5114342;28;20040;-73
2022/02/25 04:31:40;;;;;;;2.60;0.98;;;2.40;87.10;;;;;;5079058;28;20039;-73
2022/02/25 04:34:06;;;;;;;2.15;1.00;;;2.40;87.10;;;;;;5114072;28;20039;-73
2022/02/25 04:36:36;;;;;;;2.30;0.90;;;2.30;87.00;;;;;;5095936;28;20044;-74
2022/02/25 04:39:05;;;;;;;5.47;1.20;;;2.40;87.10;;;;;;5096558;28;20039;-73
2022/02/25 04:41:31;;;;;;;1.85;1.10;;;2.40;87.10;;;;;;5112543;28;20074;-73
2022/02/25 04:43:56;;;;;;;1.63;0.90;;;2.40;87.10;;;;;;5095695;28;20073;-73
2022/02/25 04:46:26;;;;;;;2.25;1.15;;;2.40;87.00;;;;;;5113905;28;20038;-74
2022/02/25 04:48:52;;;;;;;3.00;1.10;;;2.40;87.10;;;;;;5113824;28;20042;-73
2022/02/25 04:51:21;;;;;;;3.90;1.00;;;2.40;87.10;;;;;;5113835;28;20225;-73
2022/02/25 04:53:48;;;;;;;3.25;1.20;;;2.40;87.20;;;;;;5096118;28;20039;-73
2022/02/25 04:56:14;;;;;;;2.10;0.77;;;2.30;87.20;;;;;;5114107;28;20104;-73
2022/02/25 04:58:40;;;;;;;2.00;0.98;;;2.30;87.30;;;;;;5114035;28;20126;-73
2022/02/25 05:01:06;;;;;;;3.42;0.98;;;2.30;87.30;;;;;;5095329;28;20201;-73
2022/02/25 05:03:33;;;;;;;1.52;0.90;;;2.30;87.90;;;;;;5113861;28;20040;-72
2022/02/25 05:06:00;;;;;;;2.95;1.10;;;2.30;87.40;;;;;;5095674;28;20036;-73
2022/02/25 05:08:26;;;;;;;3.05;1.02;;;2.30;87.30;;;;;;5114166;28;20134;-72
2022/02/25 05:10:52;;;;;;;2.35;0.60;;;2.30;87.30;;;;;;5095550;28;20078;-73
2022/02/25 05:13:18;;;;;;;1.80;0.85;;;2.30;87.40;;;;;;5114202;28;20028;-73
2022/02/25 05:21:01;;;;;;;2.85;1.20;;;2.30;87.40;;;;;;5113628;28;20127;-73
2022/02/25 05:23:27;;;;;;;2.83;1.10;;;2.40;87.40;;;;;;5078505;28;20464;-73
2022/02/25 05:25:53;;;;;;;5.32;1.20;;;2.40;87.40;;;;;;5095430;28;20492;-72
2022/02/25 05:28:18;;;;;;;3.45;1.23;;;2.40;87.40;;;;;;5113912;28;20071;-73
2022/02/25 05:30:45;;;;;;;3.15;1.08;;;2.40;87.30;;;;;;5113833;28;20500;-73
2022/02/25 05:33:11;;;;;;;4.53;1.50;;;2.50;87.30;;;;;;5113839;28;20382;-73
2022/02/25 05:35:36;;;;;;;2.25;0.60;;;2.40;87.30;;;;;;5113911;28;20093;-73
2022/02/25 05:38:02;;;;;;;2.25;1.00;;;2.40;87.30;;;;;;5095153;28;20042;-73
2022/02/25 05:40:28;;;;;;;2.50;0.80;;;2.40;87.30;;;;;;5078170;28;20134;-73
2022/02/25 05:42:55;;;;;;;1.52;0.88;;;2.50;87.40;;;;;;5113253;28;20039;-73
2022/02/25 05:45:21;;;;;;;3.47;1.10;;;2.50;87.20;;;;;;5078119;28;20047;-72
2022/02/25 05:47:47;;;;;;;1.83;0.95;;;2.60;87.20;;;;;;5094777;28;20490;-73
2022/02/25 05:50:16;;;;;;;4.05;1.20;;;2.50;87.10;;;;;;5078244;28;20070;-71
2022/02/25 05:52:43;;;;;;;5.32;0.98;;;2.50;87.10;;;;;;5113379;28;20097;-73
2022/02/25 05:55:10;;;;;;;3.22;1.10;;;2.60;87.20;;;;;;5094704;28;20515;-73
2022/02/25 05:57:36;;;;;;;4.10;1.40;;;2.60;87.10;;;;;;5094804;28;20047;-71
2022/02/25 06:00:08;;;;;;;3.42;1.13;;;2.60;87.00;;;;;;5094784;28;20045;-72
2022/02/25 06:02:34;;;;;;;;;;;2.70;87.10;;;;;;5113839;28;20036;-72
2022/02/25 06:05:02;;;;;;;2.63;1.00;;;2.70;87.10;;;;;;5113359;28;19927;-72
2022/02/25 06:07:29;;;;;;;3.15;1.20;;;2.80;87.60;;;;;;5077960;28;20042;-72
2022/02/25 06:09:55;;;;;;;2.15;1.10;;;2.70;86.90;;;;;;5113642;28;20070;-73
2022/02/25 06:12:21;;;;;;;3.45;0.90;;;2.80;86.90;;;;;;5112928;28;20047;-73
2022/02/25 06:14:46;;;;;;;3.90;1.17;;;2.80;86.90;;;;;;5113368;28;20044;-73
2022/02/25 06:17:12;;;;;;;3.50;1.27;;;2.90;86.90;;;;;;5112868;28;20040;-74
2022/02/25 06:19:38;;;;;;;3.42;1.20;;;2.90;86.90;;;;;;5112941;28;20545;-73
2022/02/25 06:22:04;;;;;;;3.50;1.10;;;2.90;86.80;;;;;;5094650;28;20503;-74
2022/02/25 06:24:30;;;;;;;4.35;1.20;;;3.00;86.90;;;;;;5094666;28;20048;-74
2022/02/25 06:26:56;;;;;;;4.57;1.42;;;3.00;86.80;;;;;;5113161;28;20500;-73
2022/02/25 06:29:21;;;;;;;6.05;1.45;;;3.00;86.80;;;;;;5113068;28;20039;-74
2022/02/25 06:31:47;;;;;;;2.58;1.10;;;3.10;86.90;;;;;;5112603;28;20158;-74
2022/02/25 06:34:13;;;;;;;5.13;1.13;;;3.10;86.80;;;;;;5112675;28;20116;-74
2022/02/25 06:36:39;;;;;;;5.10;1.60;;;3.10;86.80;;;;;;5098037;28;20053;-74
2022/02/25 06:39:05;;;;;;;4.22;1.48;;;3.20;86.90;;;;;;5116762;28;20047;-74
2022/02/25 06:41:31;;;;;;;7.30;1.67;;;3.20;86.90;;;;;;5116441;28;20373;-74
2022/02/25 06:43:56;;;;;;;3.67;1.33;;;3.20;87.00;;;;;;5116094;28;20080;-73
2022/02/25 06:46:24;;;;;;;4.63;1.40;;;3.20;87.00;;;;;;5116631;28;20499;-74
2022/02/25 06:48:49;;;;;;;6.03;1.67;;;3.30;87.20;;;;;;5097935;28;20074;-74
2022/02/25 06:51:16;;;;;;;4.95;1.40;;;3.20;87.30;;;;;;5098200;28;20036;-74
2022/02/25 06:53:42;;;;;;;6.70;1.35;;;3.10;87.30;;;;;;5097954;28;20067;-74
2022/02/25 06:56:08;;;;;;;4.45;1.40;;;3.30;87.50;;;;;;5098252;28;20071;-74
2022/02/25 06:58:34;;;;;;;5.97;1.20;;;3.20;87.40;;;;;;5116154;28;20040;-74
2022/02/25 07:01:02;;;;;;;5.93;1.30;;;3.20;87.50;;;;;;5080729;28;20035;-74
2022/02/25 07:03:28;;;;;;;3.25;1.27;;;3.30;87.70;;;;;;5098060;28;20043;-74
2022/02/25 07:05:54;;;;;;;5.43;1.35;;;3.30;87.80;;;;;;5115643;28;20477;-74
2022/02/25 07:08:21;;;;;;;5.50;1.33;;;3.40;87.90;;;;;;5080754;28;20032;-74
2022/02/25 07:10:48;;;;;;;4.63;1.58;;;3.30;87.90;;;;;;5115795;28;20046;-74
2022/02/25 07:13:15;;;;;;;4.90;1.20;;;3.30;88.00;;;;;;5080623;28;20130;-74
2022/02/25 07:15:41;;;;;;;4.35;1.40;;;3.30;88.00;;;;;;5115673;28;20043;-74
2022/02/25 07:18:08;;;;;;;3.92;1.25;;;3.40;88.00;;;;;;5115718;28;20046;-74
2022/02/25 07:20:36;;;;;;;5.20;1.42;;;3.40;88.10;;;;;;5115220;28;20039;-74
2022/02/25 07:23:03;;;;;;;3.97;1.05;;;3.40;88.10;;;;;;5115393;28;20043;-74
2022/02/25 07:25:29;;;;;;;4.25;1.00;;;3.50;88.20;;;;;;5115399;28;20051;-75
2022/02/25 07:27:55;;;;;;;4.00;1.00;;;3.50;88.20;;;;;;5115472;28;20389;-74
2022/02/25 07:30:21;;;;;;;5.18;1.23;;;3.50;88.20;;;;;;5080266;28;20062;-74
2022/02/25 07:32:48;;;;;;;3.90;1.20;;;3.50;88.20;;;;;;5080296;28;20508;-74
2022/02/25 07:35:13;;;;;;;3.75;1.02;;;3.50;88.20;;;;;;5115597;28;20044;-73
2022/02/25 07:37:40;;;;;;;2.10;0.93;;;3.50;88.20;;;;;;5115223;28;20044;-74
2022/02/25 07:40:07;;;;;;;2.97;0.95;;;3.60;88.40;;;;;;5115253;28;20077;-75
2022/02/25 07:42:34;;;;;;;3.40;1.10;;;3.70;88.40;;;;;;5115262;28;20054;-74
2022/02/25 07:44:59;;;;;;;3.40;1.27;;;3.70;88.40;;;;;;5097201;28;20043;-74
2022/02/25 07:47:26;;;;;;;2.53;0.95;;;3.80;88.40;;;;;;5095303;28;20048;-75
2022/02/25 07:49:53;;;;;;;3.92;1.00;;;3.80;88.30;;;;;;5097386;28;20063;-75
2022/02/25 07:52:19;;;;;;;4.18;1.20;;;3.90;88.20;;;;;;5078685;28;20413;-74
2022/02/25 07:54:45;;;;;;;2.40;0.80;;;4.00;88.30;;;;;;5115546;28;20035;-76
2022/02/25 07:57:11;;;;;;;2.03;0.77;;;4.00;88.20;;;;;;5097483;28;20039;-75
2022/02/25 07:59:37;;;;;;;1.77;0.82;;;4.10;88.70;;;;;;5096743;28;20398;-74
2022/02/25 08:02:03;;;;;;;4.10;0.95;;;4.20;88.10;;;;;;5079926;28;20039;-74
2022/02/25 08:04:30;;;;;;;3.58;0.77;;;4.20;88.00;;;;;;5115411;28;20036;-76
2022/02/25 08:06:56;;;;;;;4.38;1.10;;;4.30;88.10;;;;;;5079787;28;20180;-77
2022/02/25 08:09:22;;;;;;;2.33;0.70;;;4.30;88.10;;;;;;5062909;28;20071;-73
2022/02/25 08:11:48;;;;;;;2.80;1.00;;;4.40;88.10;;;;;;5079386;28;20042;-74
2022/02/25 08:14:15;;;;;;;4.40;1.08;;;4.50;88.10;;;;;;5096371;28;20086;-73
2022/02/25 08:16:41;;;;;;;2.63;0.88;;;4.60;88.10;;;;;;5097014;28;20047;-74
2022/02/25 08:19:07;;;;;;;4.25;1.58;;;4.60;87.90;;;;;;5079504;28;20050;-73
2022/02/25 08:21:34;;;;;;;2.33;0.85;;;4.80;87.90;;;;;;5114926;28;20039;-74
2022/02/25 08:24:00;;;;;;;2.85;0.80;;;5.00;87.70;;;;;;5079671;28;20048;-73
2022/02/25 08:26:26;;;;;;;3.45;1.20;;;5.00;88.00;;;;;;5115054;28;20065;-74
2022/02/25 08:28:53;;;;;;;3.90;1.20;;;5.10;87.30;;;;;;5115113;28;20047;-75
2022/02/25 08:31:19;;;;;;;1.65;0.90;;;5.20;87.30;;;;;;5114783;28;20428;-74
2022/02/25 08:33:46;;;;;;;3.05;1.33;;;5.30;87.20;;;;;;5096415;28;20065;-74
2022/02/25 08:36:11;;;;;;;3.88;1.20;;;5.40;87.20;;;;;;5115128;28;20051;-74
2022/02/25 08:38:37;;;;;;;5.25;1.20;;;5.50;87.20;;;;;;5115060;28;20032;-74
2022/02/25 08:41:03;;;;;;;2.97;0.98;;;5.60;87.00;;;;;;5114205;28;20436;-74
2022/02/25 08:43:30;;;;;;;4.13;1.10;;;5.80;86.80;;;;;;5095916;28;20051;-73
2022/02/25 08:45:57;;;;;;;4.55;1.27;;;5.90;86.50;;;;;;5114573;28;20485;-74
2022/02/25 08:48:23;;;;;;;5.45;1.45;;;6.00;86.40;;;;;;5114359;28;20085;-74
2022/02/25 08:50:50;;;;;;;4.60;1.17;;;6.10;86.40;;;;;;5080084;28;20362;-74
2022/02/25 08:53:16;;;;;;;4.38;1.10;;;6.20;86.20;;;;;;5062400;28;20468;-75
2022/02/25 08:55:42;;;;;;;4.15;1.08;;;6.30;86.00;;;;;;5096013;28;20051;-74
2022/02/25 08:58:08;;;;;;;4.57;1.30;;;6.30;85.90;;;;;;5095995;28;20385;-73
2022/02/25 09:00:34;;;;;;;5.78;1.35;;;6.30;85.90;;;;;;5095877;28;20044;-72
2022/02/25 09:03:00;;;;;;;6.80;1.52;;;6.30;85.90;;;;;;5095726;28;20112;-73
2022/02/25 09:05:26;;;;;;;7.03;1.70;;;6.40;85.90;;;;;;5114052;28;20051;-73
2022/02/25 09:07:54;;;;;;;6.75;1.98;;;6.60;85.80;;;;;;5095744;28;20485;-76
2022/02/25 09:10:22;;;;;;;8.13;1.88;;;6.50;85.60;;;;;;5095522;28;20455;-73
2022/02/25 09:12:49;;;;;;;3.05;1.30;;;6.60;85.50;;;;;;5095463;28;20040;-74
2022/02/25 09:15:22;;;;;;;2.92;1.27;;;6.60;85.50;;;;;;5113908;28;20039;-75
2022/02/25 09:17:51;;;;;;;4.80;1.75;;;6.70;85.40;;;;;;5079068;28;20050;-75
2022/02/25 09:20:19;;;;;;;5.88;1.83;;;6.80;85.40;;;;;;5079647;28;20031;-75
2022/02/25 09:22:45;;;;;;;5.20;1.40;;;6.80;85.30;;;;;;5095844;28;20512;-75
2022/02/25 09:25:12;;;;;;;3.67;1.20;;;6.80;85.20;;;;;;5078457;28;20043;-74
2022/02/25 09:27:39;;;;;;;5.05;1.20;;;6.90;85.20;;;;;;5095351;28;20043;-75
2022/02/25 09:30:08;;;;;;;3.38;1.30;;;7.10;85.00;;;;;;5114046;28;20057;-75
2022/02/25 09:32:36;;;;;;;6.03;1.40;;;7.20;84.80;;;;;;5079347;28;20040;-76
2022/02/25 09:35:02;;;;;;;5.38;1.60;;;7.20;84.50;;;;;;5078866;28;20138;-75
2022/02/25 09:37:29;;;;;;;8.40;1.48;;;7.40;84.10;;;;;;5116224;28;20509;-75
2022/02/25 09:39:56;;;;;;;5.43;1.70;;;7.40;83.90;;;;;;5095729;28;20134;-76
2022/02/25 09:42:22;;;;;;;5.07;1.50;;;7.40;83.70;;;;;;5078433;28;20044;-75
2022/02/25 09:44:48;;;;;;;6.10;1.40;;;7.30;83.70;;;;;;5078816;28;20046;-75
2022/02/25 09:47:16;;;;;;;6.55;1.55;;;7.40;83.90;;;;;;5113709;28;20035;-75
2022/02/25 09:49:42;;;;;;;3.25;0.95;;;7.40;83.80;;;;;;5095418;28;20063;-76
2022/02/25 09:52:15;;;;;;;5.07;1.50;;;7.40;83.70;;;;;;5078160;28;20052;-75
2022/02/25 09:54:42;;;;;;;3.25;1.27;;;7.50;84.40;;;;;;5094946;28;20056;-76
2022/02/25 09:57:08;;;;;;;5.53;1.75;;;7.30;83.60;;;;;;5078679;28;20036;-76
2022/02/25 09:59:34;;;;;;;5.40;1.80;;;7.20;83.70;;;;;;5095446;28;20473;-75
2022/02/25 10:02:03;;;;;;;6.78;1.60;;;7.00;84.50;;;;;;5095528;28;20039;-74
2022/02/25 10:04:29;;;;;;;6.32;1.58;;;6.90;84.20;;;;;;5077866;28;20443;-74
2022/02/25 10:06:55;;;;;;;4.78;1.23;;;6.80;84.50;;;;;;5112969;28;20069;-74
2022/02/25 10:09:39;;;;;;;4.15;1.42;;;6.80;84.80;;;;;;5093822;28;20036;-74
2022/02/25 10:12:10;;;;;;;2.45;0.88;;;6.70;84.90;;;;;;5094837;28;20111;-74
2022/02/25 10:14:43;;;;;;;6.38;1.42;;;6.70;85.00;;;;;;5093388;28;20036;-74
2022/02/25 10:17:23;;;;;;;5.97;1.50;;;6.70;85.10;;;;;;5094476;28;20046;-75
2022/02/25 10:19:51;;;;;;;11.05;1.90;;;6.60;85.00;;;;;;5092898;28;20044;-74
2022/02/25 10:22:20;;;;;;;5.43;1.88;;;6.60;84.90;;;;;;5093073;28;20036;-75
2022/02/25 10:24:58;;;;;;;9.52;1.80;;;6.60;84.90;;;;;;5113415;28;20384;-73
2022/02/25 10:27:28;;;;;;;6.38;1.70;;;6.50;84.80;;;;;;5093993;28;20044;-75
2022/02/25 10:29:58;;;;;;;5.85;1.40;;;6.60;84.90;;;;;;5095491;28;20055;-73
2022/02/25 10:32:29;;;;;;;3.67;1.15;;;6.60;84.80;;;;;;5112673;28;20038;-73
2022/02/25 10:34:55;;;;;;;4.30;1.13;;;6.60;84.80;;;;;;5094125;28;20489;-74
2022/02/25 10:37:21;;;;;;;3.75;1.30;;;6.60;84.80;;;;;;5078036;28;20050;-73
2022/02/25 10:39:47;;;;;;;3.10;1.00;;;6.50;85.00;;;;;;5112697;28;20044;-74
2022/02/25 10:42:19;;;;;;;5.65;1.45;;;6.50;85.00;;;;;;5112650;28;20031;-73
2022/02/25 10:44:49;;;;;;;3.65;1.20;;;6.50;85.20;;;;;;5112848;28;20092;-74
2022/02/25 10:47:21;;;;;;;5.03;1.40;;;6.50;85.20;;;;;;5077750;28;20039;-73
2022/02/25 10:49:50;;;;;;;6.57;1.48;;;6.50;85.30;;;;;;5112802;28;20042;-74
2022/02/25 10:52:21;;;;;;;4.70;1.10;;;6.50;85.30;;;;;;5112358;28;20032;-73
2022/02/25 10:54:47;;;;;;;5.30;1.35;;;6.40;85.30;;;;;;5112351;28;20489;-73
2022/02/25 10:57:13;;;;;;;3.88;1.02;;;6.40;85.40;;;;;;5094382;28;20057;-72
2022/02/25 10:59:43;;;;;;;4.55;1.10;;;6.30;85.40;;;;;;5077477;28;20396;-72
2022/02/25 11:02:31;;;;;;;5.53;1.30;;;6.30;85.60;;;;;;5110739;28;20036;-73
2022/02/25 11:05:01;;;;;;;3.65;1.05;;;6.30;85.70;;;;;;5112420;28;20055;-73
2022/02/25 11:07:28;;;;;;;3.90;0.90;;;6.30;85.80;;;;;;5077646;28;20046;-73
2022/02/25 11:09:54;;;;;;;2.78;0.80;;;6.20;85.80;;;;;;5112795;28;20036;-73
2022/02/25 11:12:20;;;;;;;3.40;0.98;;;6.20;86.00;;;;;;5112564;28;20039;-73
2022/02/25 11:14:46;;;;;;;3.90;1.13;;;6.20;86.00;;;;;;5112157;28;20389;-73
2022/02/25 11:17:12;;;;;;;1.70;0.50;;;6.10;86.00;;;;;;5094065;28;20129;-73
2022/02/25 11:19:39;;;;;;;1.80;0.55;;;6.10;86.20;;;;;;5112565;28;20043;-73
2022/02/25 11:22:07;;;;;;;2.13;0.80;;;6.00;86.30;;;;;;5114404;28;20050;-73
2022/02/25 11:24:37;;;;;;;1.25;0.50;;;5.90;86.50;;;;;;5115447;28;20497;-75
2022/02/25 11:27:04;;;;;;;2.05;0.70;;;5.90;86.70;;;;;;5097039;28;20062;-74
2022/02/25 11:29:34;;;;;;;3.58;0.90;;;5.90;86.80;;;;;;5115615;28;20035;-75
2022/02/25 11:32:02;;;;;;;1.90;0.63;;;5.80;86.80;;;;;;5097220;28;20482;-76
2022/02/25 11:34:28;;;;;;;1.80;0.73;;;5.70;86.90;;;;;;5115191;28;20047;-75
2022/02/25 11:36:53;;;;;;;1.73;0.60;;;5.70;87.00;;;;;;5096540;28;20131;-76
2022/02/25 11:39:24;;;;;;;2.78;0.63;;;5.70;87.10;;;;;;5096979;28;20056;-75
2022/02/25 11:41:53;;;;;;;0.47;0.25;;;5.70;87.30;;;;;;5115254;28;20047;-76
2022/02/25 11:44:20;;;;;;;1.10;0.40;;;5.70;87.40;;;;;;5080628;28;20043;-75
2022/02/25 11:46:45;;;;;;;1.88;0.70;;;5.70;87.40;;;;;;5081764;28;20067;-76
2022/02/25 11:49:19;;;;;;;2.60;0.57;;;5.70;87.30;;;;;;5083479;28;20481;-78
2022/02/25 11:52:02;;;;;;;3.55;0.80;;;5.80;87.30;;;;;;5081353;28;20377;-77
2022/02/25 11:54:34;;;;;;;1.73;0.47;;;5.80;87.30;;;;;;5115506;28;20039;-78
2022/02/25 11:57:20;;;;;;;2.50;0.70;;;5.90;87.30;;;;;;5080726;28;20039;-77
2022/02/25 12:00:14;;;;;;;1.52;0.65;;;6.00;87.30;;;;;;5097159;28;20100;-74
2022/02/25 12:03:10;;;;;;;4.10;0.73;;;5.90;87.10;;;;;;5084299;28;20513;-77
2022/02/25 12:05:38;;;;;;;1.67;0.60;;;5.90;87.10;;;;;;5118760;28;20503;-73
2022/02/25 12:08:22;;;;;;;2.92;0.63;;;5.90;87.00;;;;;;5115352;28;20505;-74
2022/02/25 12:10:47;;;;;;;2.25;0.70;;;6.00;87.10;;;;;;5113872;28;20040;-73
2022/02/25 12:13:21;;;;;;;0.77;0.40;;;6.20;87.20;;;;;;5114729;28;20043;-73
2022/02/25 12:15:49;;;;;;;1.73;0.77;;;6.30;87.10;;;;;;5114766;28;20047;-73
2022/02/25 12:18:16;;;;;;;2.47;0.85;;;6.50;86.90;;;;;;5115017;28;20129;-74
2022/02/25 12:20:48;;;;;;;1.33;0.60;;;6.70;86.50;;;;;;5096357;28;20047;-73
2022/02/25 12:23:20;;;;;;;1.88;0.80;;;6.80;86.00;;;;;;5114767;28;20139;-73
2022/02/25 12:25:55;;;;;;;3.20;0.60;;;6.90;85.70;;;;;;5096382;28;20051;-73
2022/02/25 12:28:41;;;;;;;2.45;0.80;;;7.00;85.60;;;;;;5114613;28;20046;-73
2022/02/25 12:31:09;;;;;;;3.40;0.98;;;7.00;85.50;;;;;;5096442;28;20044;-73
2022/02/25 12:33:40;;;;;;;2.55;0.98;;;7.10;85.50;;;;;;5095522;28;20431;-73
2022/02/25 12:36:12;;;;;;;4.28;1.00;;;7.20;85.50;;;;;;5097179;28;20504;-73
2022/02/25 12:38:43;;;;;;;5.05;1.10;;;7.20;85.40;;;;;;5114475;28;20051;-76
2022/02/25 12:41:15;;;;;;;5.43;1.25;;;7.30;85.30;;;;;;5097152;28;20051;-76
2022/02/25 12:44:01;;;;;;;4.13;1.02;;;7.50;85.20;;;;;;5035287;28;20506;-78
2022/02/25 12:46:45;;;;;;;6.80;1.40;;;7.30;85.40;;;;;;5036896;28;20048;-77
2022/02/25 12:49:14;;;;;;;6.07;1.55;;;7.50;85.20;;;;;;5036132;28;20139;-77
2022/02/25 12:51:56;;;;;;;4.10;1.10;;;7.40;85.00;;;;;;5034766;28;20044;-78
2022/02/25 12:54:24;;;;;;;4.28;1.23;;;7.40;85.30;;;;;;5032877;28;20522;-76
2022/02/25 12:56:53;;;;;;;3.75;1.13;;;7.40;85.40;;;;;;5051662;28;20514;-78
2022/02/25 12:59:30;;;;;;;4.22;1.23;;;7.30;85.40;;;;;;5016012;28;20047;-77
2022/02/25 13:01:57;;;;;;;7.72;1.70;;;7.30;85.60;;;;;;5035191;28;20045;-77
2022/02/25 13:04:27;;;;;;;10.88;1.40;;;7.30;85.70;;;;;;5051208;28;20124;-78